sensor_id;sensor_type;location;lat;lon;timestamp;P1;P2;P0
35654;PMS1003;21773;50.010;19.972;2023-01-25T00:01:15;12.00;10.25;9.00
35654;PMS1003;21773;50.010;19.972;2023-01-25T00:04:19;9.00;9.00;8.00
35654;PMS1003;21773;50.010;19.972;2023-01-25T00:07:24;10.40;10.00;9.00
35654;PMS1003;21773;50.010;19.972;2023-01-25T00:10:28;10.00;9.00;7.80
35654;PMS1003;21773;50.010;19.972;2023-01-25T00:13:31;12.00;10.00;9.00
35654;PMS1003;21773;50.010;19.972;2023-01-25T00:16:34;11.00;10.00;8.60
35654;PMS1003;21773;50.010;19.972;2023-01-25T00:19:38;9.25;9.25;8.25
35654;PMS1003;21773;50.010;19.972;2023-01-25T00:22:43;9.00;8.00;8.00
35654;PMS1003;21773;50.010;19.972;2023-01-25T00:25:46;10.00;10.00;9.00
35654;PMS1003;21773;50.010;19.972;2023-01-25T00:28:50;10.00;8.20;7.80
35654;PMS1003;21773;50.010;19.972;2023-01-25T00:31:57;10.75;9.75;9.00
35654;PMS1003;21773;50.010;19.972;2023-01-25T00:35:10;10.60;10.60;10.00
35654;PMS1003;21773;50.010;19.972;2023-01-25T00:38:22;7.00;7.00;6.20
35654;PMS1003;21773;50.010;19.972;2023-01-25T00:41:31;8.00;7.75;6.75
35654;PMS1003;21773;50.010;19.972;2023-01-25T00:44:35;7.20;7.20;6.20
35654;PMS1003;21773;50.010;19.972;2023-01-25T00:47:38;9.60;9.00;9.00
35654;PMS1003;21773;50.010;19.972;2023-01-25T00:50:43;8.50;7.50;7.00
35654;PMS1003;21773;50.010;19.972;2023-01-25T00:53:48;8.00;8.00;7.60
35654;PMS1003;21773;50.010;19.972;2023-01-25T00:56:53;7.60;7.60;6.60
35654;PMS1003;21773;50.010;19.972;2023-01-25T00:59:57;9.00;8.00;7.00
35654;PMS1003;21773;50.010;19.972;2023-01-25T01:03:00;10.00;9.00;8.00
35654;PMS1003;21773;50.010;19.972;2023-01-25T01:06:04;10.00;8.00;8.00
35654;PMS1003;21773;50.010;19.972;2023-01-25T01:09:13;7.25;7.00;6.00
35654;PMS1003;21773;50.010;19.972;2023-01-25T01:12:18;10.00;9.40;8.40
35654;PMS1003;21773;50.010;19.972;2023-01-25T01:15:22;9.00;8.00;7.00
35654;PMS1003;21773;50.010;19.972;2023-01-25T01:18:25;7.00;6.75;6.00
35654;PMS1003;21773;50.010;19.972;2023-01-25T01:21:29;7.20;7.00;6.20
35654;PMS1003;21773;50.010;19.972;2023-01-25T01:24:33;9.00;9.00;7.60
35654;PMS1003;21773;50.010;19.972;2023-01-25T01:27:37;8.20;8.00;6.80
35654;PMS1003;21773;50.010;19.972;2023-01-25T01:30:40;11.00;9.40;8.00
35654;PMS1003;21773;50.010;19.972;2023-01-25T01:33:44;8.00;7.00;6.60
35654;PMS1003;21773;50.010;19.972;2023-01-25T01:36:50;9.00;8.60;7.60
35654;PMS1003;21773;50.010;19.972;2023-01-25T01:39:55;8.40;8.00;7.00
35654;PMS1003;21773;50.010;19.972;2023-01-25T01:43:00;8.60;8.60;7.60
35654;PMS1003;21773;50.010;19.972;2023-01-25T01:46:08;7.40;6.40;6.00
35654;PMS1003;21773;50.010;19.972;2023-01-25T01:49:18;9.60;9.00;8.00
35654;PMS1003;21773;50.010;19.972;2023-01-25T01:52:28;9.00;8.50;8.00
35654;PMS1003;21773;50.010;19.972;2023-01-25T01:55:36;10.00;9.00;8.00
35654;PMS1003;21773;50.010;19.972;2023-01-25T01:58:40;10.00;10.00;9.00
35654;PMS1003;21773;50.010;19.972;2023-01-25T02:01:46;9.75;8.00;7.00
35654;PMS1003;21773;50.010;19.972;2023-01-25T02:04:49;10.00;8.00;7.50
35654;PMS1003;21773;50.010;19.972;2023-01-25T02:07:55;9.00;8.60;8.00
35654;PMS1003;21773;50.010;19.972;2023-01-25T02:11:02;9.00;9.00;8.60
35654;PMS1003;21773;50.010;19.972;2023-01-25T02:14:07;10.80;10.00;8.80
35654;PMS1003;21773;50.010;19.972;2023-01-25T02:17:10;11.75;10.75;10.00
35654;PMS1003;21773;50.010;19.972;2023-01-25T02:20:16;9.00;8.00;7.00
35654;PMS1003;21773;50.010;19.972;2023-01-25T02:23:28;11.00;9.60;8.00
35654;PMS1003;21773;50.010;19.972;2023-01-25T02:26:38;10.00;10.00;8.60
35654;PMS1003;21773;50.010;19.972;2023-01-25T02:29:42;11.00;9.40;8.40
35654;PMS1003;21773;50.010;19.972;2023-01-25T02:32:46;11.00;10.00;8.50
35654;PMS1003;21773;50.010;19.972;2023-01-25T02:35:52;9.50;9.50;9.00
35654;PMS1003;21773;50.010;19.972;2023-01-25T02:39:00;8.00;7.25;7.00
35654;PMS1003;21773;50.010;19.972;2023-01-25T02:42:08;9.60;8.60;8.20
35654;PMS1003;21773;50.010;19.972;2023-01-25T02:45:14;10.75;10.00;9.00
35654;PMS1003;21773;50.010;19.972;2023-01-25T02:48:20;11.00;9.00;8.00
35654;PMS1003;21773;50.010;19.972;2023-01-25T02:51:24;10.60;10.60;9.00
35654;PMS1003;21773;50.010;19.972;2023-01-25T02:54:30;12.00;11.00;10.00
35654;PMS1003;21773;50.010;19.972;2023-01-25T02:57:36;9.00;8.40;8.00
35654;PMS1003;21773;50.010;19.972;2023-01-25T03:00:40;9.40;9.00;7.40
35654;PMS1003;21773;50.010;19.972;2023-01-25T03:03:43;11.00;11.00;10.00
35654;PMS1003;21773;50.010;19.972;2023-01-25T03:06:47;9.20;9.20;8.00
35654;PMS1003;21773;50.010;19.972;2023-01-25T03:09:52;12.25;10.25;9.25
35654;PMS1003;21773;50.010;19.972;2023-01-25T03:12:56;11.20;9.80;8.20
35654;PMS1003;21773;50.010;19.972;2023-01-25T03:16:01;10.20;9.00;6.80
35654;PMS1003;21773;50.010;19.972;2023-01-25T03:19:05;9.00;8.75;7.25
35654;PMS1003;21773;50.010;19.972;2023-01-25T03:22:09;9.00;9.00;8.00
35654;PMS1003;21773;50.010;19.972;2023-01-25T03:25:12;14.00;11.60;10.00
35654;PMS1003;21773;50.010;19.972;2023-01-25T03:28:27;11.00;9.00;8.00
35654;PMS1003;21773;50.010;19.972;2023-01-25T03:31:31;12.00;10.50;9.00
35654;PMS1003;21773;50.010;19.972;2023-01-25T03:34:34;12.00;11.00;10.00
35654;PMS1003;21773;50.010;19.972;2023-01-25T03:37:38;11.00;10.40;9.00
35654;PMS1003;21773;50.010;19.972;2023-01-25T03:40:41;10.00;10.00;9.00
35654;PMS1003;21773;50.010;19.972;2023-01-25T03:43:46;11.00;11.00;9.50
35654;PMS1003;21773;50.010;19.972;2023-01-25T03:46:51;13.00;12.00;10.80
35654;PMS1003;21773;50.010;19.972;2023-01-25T03:49:55;11.00;10.00;9.00
35654;PMS1003;21773;50.010;19.972;2023-01-25T03:52:58;15.00;13.00;12.00
35654;PMS1003;21773;50.010;19.972;2023-01-25T03:56:06;14.50;13.00;12.00
35654;PMS1003;21773;50.010;19.972;2023-01-25T03:59:13;12.75;11.00;10.00
35654;PMS1003;21773;50.010;19.972;2023-01-25T04:02:18;11.20;10.00;8.00
35654;PMS1003;21773;50.010;19.972;2023-01-25T04:05:21;12.40;11.40;10.00
35654;PMS1003;21773;50.010;19.972;2023-01-25T04:08:25;10.40;10.00;8.40
35654;PMS1003;21773;50.010;19.972;2023-01-25T04:11:29;12.00;11.00;9.00
35654;PMS1003;21773;50.010;19.972;2023-01-25T04:14:34;13.40;10.40;8.60
35654;PMS1003;21773;50.010;19.972;2023-01-25T04:17:50;13.00;13.00;11.00
35654;PMS1003;21773;50.010;19.972;2023-01-25T04:20:56;13.00;11.40;10.40
35654;PMS1003;21773;50.010;19.972;2023-01-25T04:24:00;11.20;11.00;9.20
35654;PMS1003;21773;50.010;19.972;2023-01-25T04:27:06;12.00;10.00;8.00
35654;PMS1003;21773;50.010;19.972;2023-01-25T04:30:25;11.00;10.40;9.00
35654;PMS1003;21773;50.010;19.972;2023-01-25T04:33:29;12.50;11.00;9.00
35654;PMS1003;21773;50.010;19.972;2023-01-25T04:36:32;10.00;9.60;9.00
35654;PMS1003;21773;50.010;19.972;2023-01-25T04:39:36;13.20;13.00;10.20
35654;PMS1003;21773;50.010;19.972;2023-01-25T04:42:39;10.00;9.25;8.00
35654;PMS1003;21773;50.010;19.972;2023-01-25T04:45:44;10.00;9.00;8.00
35654;PMS1003;21773;50.010;19.972;2023-01-25T04:48:55;13.00;11.00;8.00
35654;PMS1003;21773;50.010;19.972;2023-01-25T04:51:59;14.00;10.50;9.00
35654;PMS1003;21773;50.010;19.972;2023-01-25T04:55:02;13.00;10.00;7.40
35654;PMS1003;21773;50.010;19.972;2023-01-25T04:58:12;13.00;12.00;9.00
35654;PMS1003;21773;50.010;19.972;2023-01-25T05:01:18;11.60;10.00;8.00
35654;PMS1003;21773;50.010;19.972;2023-01-25T05:04:23;10.40;9.00;7.00
35654;PMS1003;21773;50.010;19.972;2023-01-25T05:07:28;13.00;12.00;10.00
35654;PMS1003;21773;50.010;19.972;2023-01-25T05:10:31;12.00;11.00;10.00
35654;PMS1003;21773;50.010;19.972;2023-01-25T05:13:55;9.00;8.00;7.00
35654;PMS1003;21773;50.010;19.972;2023-01-25T05:17:06;10.00;9.25;8.25
35654;PMS1003;21773;50.010;19.972;2023-01-25T05:20:10;10.20;9.00;7.60
35654;PMS1003;21773;50.010;19.972;2023-01-25T05:23:14;9.60;8.60;8.00
35654;PMS1003;21773;50.010;19.972;2023-01-25T05:26:18;11.25;10.75;9.75
35654;PMS1003;21773;50.010;19.972;2023-01-25T05:29:41;10.25;10.00;8.00
35654;PMS1003;21773;50.010;19.972;2023-01-25T05:32:48;11.00;9.40;8.40
35654;PMS1003;21773;50.010;19.972;2023-01-25T05:35:51;11.80;10.00;9.00
35654;PMS1003;21773;50.010;19.972;2023-01-25T05:38:57;7.50;7.50;6.00
35654;PMS1003;21773;50.010;19.972;2023-01-25T05:42:07;11.00;8.00;7.00
35654;PMS1003;21773;50.010;19.972;2023-01-25T05:45:12;12.20;11.00;9.00
35654;PMS1003;21773;50.010;19.972;2023-01-25T05:48:19;7.20;7.20;6.20
35654;PMS1003;21773;50.010;19.972;2023-01-25T05:51:23;11.00;10.00;7.50
35654;PMS1003;21773;50.010;19.972;2023-01-25T05:54:27;9.40;8.00;7.00
35654;PMS1003;21773;50.010;19.972;2023-01-25T05:57:36;9.20;8.20;6.60
35654;PMS1003;21773;50.010;19.972;2023-01-25T06:00:39;10.25;9.25;8.25
35654;PMS1003;21773;50.010;19.972;2023-01-25T06:03:47;9.50;8.50;7.00
35654;PMS1003;21773;50.010;19.972;2023-01-25T06:06:51;8.00;7.00;5.60
35654;PMS1003;21773;50.010;19.972;2023-01-25T06:09:54;8.25;7.00;6.00
35654;PMS1003;21773;50.010;19.972;2023-01-25T06:12:57;7.00;7.00;6.00
35654;PMS1003;21773;50.010;19.972;2023-01-25T06:16:01;11.00;9.40;8.00
35654;PMS1003;21773;50.010;19.972;2023-01-25T06:19:29;8.00;7.80;6.80
35654;PMS1003;21773;50.010;19.972;2023-01-25T06:22:43;5.60;5.60;5.00
35654;PMS1003;21773;50.010;19.972;2023-01-25T06:25:51;9.00;7.60;6.00
35654;PMS1003;21773;50.010;19.972;2023-01-25T06:28:56;8.40;6.40;5.00
35654;PMS1003;21773;50.010;19.972;2023-01-25T06:31:59;8.00;7.40;7.00
35654;PMS1003;21773;50.010;19.972;2023-01-25T06:35:04;8.00;7.00;6.00
35654;PMS1003;21773;50.010;19.972;2023-01-25T06:38:08;9.50;9.50;9.00
35654;PMS1003;21773;50.010;19.972;2023-01-25T06:41:11;10.00;9.00;8.00
35654;PMS1003;21773;50.010;19.972;2023-01-25T06:44:15;10.00;8.40;7.00
35654;PMS1003;21773;50.010;19.972;2023-01-25T06:47:18;7.20;6.20;5.00
35654;PMS1003;21773;50.010;19.972;2023-01-25T06:50:23;11.00;9.40;8.00
35654;PMS1003;21773;50.010;19.972;2023-01-25T06:53:27;7.75;6.25;6.00
35654;PMS1003;21773;50.010;19.972;2023-01-25T06:56:32;9.00;7.40;6.60
35654;PMS1003;21773;50.010;19.972;2023-01-25T06:59:35;8.60;6.60;6.60
35654;PMS1003;21773;50.010;19.972;2023-01-25T07:02:39;9.00;8.00;7.00
35654;PMS1003;21773;50.010;19.972;2023-01-25T07:05:44;8.00;8.00;7.00
35654;PMS1003;21773;50.010;19.972;2023-01-25T07:08:47;6.80;6.80;6.00
35654;PMS1003;21773;50.010;19.972;2023-01-25T07:11:51;7.00;7.00;6.00
35654;PMS1003;21773;50.010;19.972;2023-01-25T07:14:55;5.75;5.75;4.75
35654;PMS1003;21773;50.010;19.972;2023-01-25T07:17:58;8.00;7.80;7.00
35654;PMS1003;21773;50.010;19.972;2023-01-25T07:21:18;6.80;6.80;6.00
35654;PMS1003;21773;50.010;19.972;2023-01-25T07:24:23;9.00;8.00;7.00
35654;PMS1003;21773;50.010;19.972;2023-01-25T07:27:27;6.00;6.00;6.00
35654;PMS1003;21773;50.010;19.972;2023-01-25T07:30:35;8.00;7.00;6.00
35654;PMS1003;21773;50.010;19.972;2023-01-25T07:33:39;6.00;6.00;4.00
35654;PMS1003;21773;50.010;19.972;2023-01-25T07:36:44;8.00;7.00;6.00
35654;PMS1003;21773;50.010;19.972;2023-01-25T07:39:48;7.00;7.00;6.00
35654;PMS1003;21773;50.010;19.972;2023-01-25T07:42:51;8.00;7.60;7.00
35654;PMS1003;21773;50.010;19.972;2023-01-25T07:45:59;8.00;8.00;7.00
35654;PMS1003;21773;50.010;19.972;2023-01-25T07:49:04;9.00;7.00;6.00
35654;PMS1003;21773;50.010;19.972;2023-01-25T07:52:08;7.00;6.00;5.00
35654;PMS1003;21773;50.010;19.972;2023-01-25T07:55:12;9.00;7.50;6.00
35654;PMS1003;21773;50.010;19.972;2023-01-25T07:58:16;8.00;8.00;7.00
35654;PMS1003;21773;50.010;19.972;2023-01-25T08:01:20;7.00;7.00;6.00
35654;PMS1003;21773;50.010;19.972;2023-01-25T08:04:24;7.25;5.00;4.00
35654;PMS1003;21773;50.010;19.972;2023-01-25T08:07:29;10.50;9.00;8.00
35654;PMS1003;21773;50.010;19.972;2023-01-25T08:10:32;7.00;6.75;5.00
35654;PMS1003;21773;50.010;19.972;2023-01-25T08:13:36;9.00;8.00;7.00
35654;PMS1003;21773;50.010;19.972;2023-01-25T08:16:39;10.00;9.00;8.00
35654;PMS1003;21773;50.010;19.972;2023-01-25T08:19:42;9.00;9.00;8.00
35654;PMS1003;21773;50.010;19.972;2023-01-25T08:22:47;7.60;7.60;6.60
35654;PMS1003;21773;50.010;19.972;2023-01-25T08:25:51;7.00;7.00;6.00
35654;PMS1003;21773;50.010;19.972;2023-01-25T08:28:54;9.80;8.80;7.80
35654;PMS1003;21773;50.010;19.972;2023-01-25T08:31:58;10.40;10.40;9.00
35654;PMS1003;21773;50.010;19.972;2023-01-25T08:35:05;8.00;7.80;6.00
35654;PMS1003;21773;50.010;19.972;2023-01-25T08:38:11;10.25;9.25;8.00
35654;PMS1003;21773;50.010;19.972;2023-01-25T08:41:15;7.40;7.00;6.60
35654;PMS1003;21773;50.010;19.972;2023-01-25T08:44:20;7.00;6.00;5.60
35654;PMS1003;21773;50.010;19.972;2023-01-25T08:47:26;8.00;7.00;6.00
35654;PMS1003;21773;50.010;19.972;2023-01-25T08:50:29;8.40;7.40;6.40
35654;PMS1003;21773;50.010;19.972;2023-01-25T08:53:34;7.40;6.40;5.40
35654;PMS1003;21773;50.010;19.972;2023-01-25T08:56:38;10.00;9.00;8.00
35654;PMS1003;21773;50.010;19.972;2023-01-25T08:59:44;9.00;8.00;7.00
35654;PMS1003;21773;50.010;19.972;2023-01-25T09:02:47;10.00;8.50;8.00
35654;PMS1003;21773;50.010;19.972;2023-01-25T09:05:52;8.25;8.25;7.25
35654;PMS1003;21773;50.010;19.972;2023-01-25T09:08:58;9.80;8.00;6.00
35654;PMS1003;21773;50.010;19.972;2023-01-25T09:12:01;9.00;9.00;7.50
35654;PMS1003;21773;50.010;19.972;2023-01-25T09:15:05;12.00;11.00;8.40
35654;PMS1003;21773;50.010;19.972;2023-01-25T09:18:09;10.25;9.25;8.25
35654;PMS1003;21773;50.010;19.972;2023-01-25T09:21:13;12.60;12.00;11.00
35654;PMS1003;21773;50.010;19.972;2023-01-25T09:24:20;12.00;11.00;9.00
35654;PMS1003;21773;50.010;19.972;2023-01-25T09:27:23;11.00;11.00;10.00
35654;PMS1003;21773;50.010;19.972;2023-01-25T09:30:26;10.00;9.00;8.00
35654;PMS1003;21773;50.010;19.972;2023-01-25T09:33:54;9.75;9.00;8.00
35654;PMS1003;21773;50.010;19.972;2023-01-25T09:36:59;9.00;8.00;7.60
35654;PMS1003;21773;50.010;19.972;2023-01-25T09:40:05;8.50;7.50;6.50
35654;PMS1003;21773;50.010;19.972;2023-01-25T09:43:16;9.00;8.00;7.00
35654;PMS1003;21773;50.010;19.972;2023-01-25T09:46:37;8.40;7.40;7.00
35654;PMS1003;21773;50.010;19.972;2023-01-25T09:49:47;11.00;11.00;9.40
35654;PMS1003;21773;50.010;19.972;2023-01-25T09:53:19;7.60;7.00;6.60
35654;PMS1003;21773;50.010;19.972;2023-01-25T09:56:28;8.00;7.00;6.80
35654;PMS1003;21773;50.010;19.972;2023-01-25T09:59:35;10.00;8.00;6.00
35654;PMS1003;21773;50.010;19.972;2023-01-25T10:02:42;13.20;13.20;12.00
35654;PMS1003;21773;50.010;19.972;2023-01-25T10:05:53;11.00;9.50;8.50
35654;PMS1003;21773;50.010;19.972;2023-01-25T10:09:01;9.20;9.20;7.20
35654;PMS1003;21773;50.010;19.972;2023-01-25T10:12:17;11.20;11.00;9.40
35654;PMS1003;21773;50.010;19.972;2023-01-25T10:15:27;15.00;14.00;12.00
35654;PMS1003;21773;50.010;19.972;2023-01-25T10:18:36;14.00;13.40;11.40
35654;PMS1003;21773;50.010;19.972;2023-01-25T10:21:43;14.00;13.00;11.50
35654;PMS1003;21773;50.010;19.972;2023-01-25T10:25:05;15.00;13.40;11.00
35654;PMS1003;21773;50.010;19.972;2023-01-25T10:28:50;20.00;17.00;13.40
35654;PMS1003;21773;50.010;19.972;2023-01-25T10:32:10;17.60;16.00;13.00
35654;PMS1003;21773;50.010;19.972;2023-01-25T10:35:20;21.80;21.00;17.40
35654;PMS1003;21773;50.010;19.972;2023-01-25T10:38:39;18.00;17.00;14.00
35654;PMS1003;21773;50.010;19.972;2023-01-25T10:41:44;19.80;18.00;17.00
35654;PMS1003;21773;50.010;19.972;2023-01-25T10:44:52;20.00;18.50;15.00
35654;PMS1003;21773;50.010;19.972;2023-01-25T10:47:56;16.00;14.00;12.00
35654;PMS1003;21773;50.010;19.972;2023-01-25T10:51:04;17.20;16.00;14.20
35654;PMS1003;21773;50.010;19.972;2023-01-25T10:54:12;21.00;18.60;15.60
35654;PMS1003;21773;50.010;19.972;2023-01-25T10:57:17;20.80;18.20;15.20
35654;PMS1003;21773;50.010;19.972;2023-01-25T11:00:25;18.00;16.00;13.00
35654;PMS1003;21773;50.010;19.972;2023-01-25T11:03:33;15.25;13.00;11.75
35654;PMS1003;21773;50.010;19.972;2023-01-25T11:06:45;12.50;11.00;10.50
35654;PMS1003;21773;50.010;19.972;2023-01-25T11:09:51;13.40;12.20;10.20
35654;PMS1003;21773;50.010;19.972;2023-01-25T11:13:10;15.00;13.00;11.00
35654;PMS1003;21773;50.010;19.972;2023-01-25T11:16:33;15.40;14.40;13.00
35654;PMS1003;21773;50.010;19.972;2023-01-25T11:19:39;17.00;14.00;10.00
35654;PMS1003;21773;50.010;19.972;2023-01-25T11:22:49;17.80;15.80;13.80
35654;PMS1003;21773;50.010;19.972;2023-01-25T11:25:53;16.80;15.40;13.00
35654;PMS1003;21773;50.010;19.972;2023-01-25T11:29:14;14.00;13.20;11.80
35654;PMS1003;21773;50.010;19.972;2023-01-25T11:32:20;15.00;13.00;11.00
35654;PMS1003;21773;50.010;19.972;2023-01-25T11:35:26;16.40;15.00;13.40
35654;PMS1003;21773;50.010;19.972;2023-01-25T11:38:35;16.40;13.00;12.00
35654;PMS1003;21773;50.010;19.972;2023-01-25T11:41:48;15.50;14.25;13.00
35654;PMS1003;21773;50.010;19.972;2023-01-25T11:45:03;14.00;12.60;11.00
35654;PMS1003;21773;50.010;19.972;2023-01-25T11:48:26;13.00;12.00;10.00
35654;PMS1003;21773;50.010;19.972;2023-01-25T11:51:48;14.50;12.00;10.00
35654;PMS1003;21773;50.010;19.972;2023-01-25T11:54:59;10.40;9.60;7.00
35654;PMS1003;21773;50.010;19.972;2023-01-25T11:58:16;13.40;12.00;10.40
35654;PMS1003;21773;50.010;19.972;2023-01-25T12:01:31;12.00;11.00;8.00
35654;PMS1003;21773;50.010;19.972;2023-01-25T12:04:51;12.50;11.00;10.00
35654;PMS1003;21773;50.010;19.972;2023-01-25T12:08:19;10.60;9.00;7.60
35654;PMS1003;21773;50.010;19.972;2023-01-25T12:11:39;9.20;8.00;7.00
35654;PMS1003;21773;50.010;19.972;2023-01-25T12:18:29;13.00;11.20;10.00
35654;PMS1003;21773;50.010;19.972;2023-01-25T12:21:53;12.00;11.00;9.60
35654;PMS1003;21773;50.010;19.972;2023-01-25T12:25:14;15.50;14.00;11.50
35654;PMS1003;21773;50.010;19.972;2023-01-25T12:28:28;12.00;12.00;10.00
35654;PMS1003;21773;50.010;19.972;2023-01-25T12:31:38;14.00;13.00;12.00
35654;PMS1003;21773;50.010;19.972;2023-01-25T12:34:47;16.00;14.50;12.50
35654;PMS1003;21773;50.010;19.972;2023-01-25T12:38:01;15.20;13.60;12.00
35654;PMS1003;21773;50.010;19.972;2023-01-25T12:41:07;13.00;12.50;10.50
35654;PMS1003;21773;50.010;19.972;2023-01-25T12:44:22;14.00;12.00;10.50
35654;PMS1003;21773;50.010;19.972;2023-01-25T12:47:29;14.20;13.00;11.20
35654;PMS1003;21773;50.010;19.972;2023-01-25T12:50:39;8.20;7.20;7.00
35654;PMS1003;21773;50.010;19.972;2023-01-25T12:53:48;14.00;13.00;13.00
35654;PMS1003;21773;50.010;19.972;2023-01-25T12:56:57;13.75;13.00;11.50
35654;PMS1003;21773;50.010;19.972;2023-01-25T13:00:15;10.00;9.00;7.00
35654;PMS1003;21773;50.010;19.972;2023-01-25T13:03:26;12.60;10.60;9.60
35654;PMS1003;21773;50.010;19.972;2023-01-25T13:06:35;14.00;13.00;11.00
35654;PMS1003;21773;50.010;19.972;2023-01-25T13:09:50;13.00;12.00;11.00
35654;PMS1003;21773;50.010;19.972;2023-01-25T13:13:00;12.00;11.00;10.00
35654;PMS1003;21773;50.010;19.972;2023-01-25T13:16:30;12.00;11.00;10.00
35654;PMS1003;21773;50.010;19.972;2023-01-25T13:19:38;10.75;9.25;9.00
35654;PMS1003;21773;50.010;19.972;2023-01-25T13:22:53;6.00;6.00;5.00
35654;PMS1003;21773;50.010;19.972;2023-01-25T13:29:57;6.00;6.00;5.40
35654;PMS1003;21773;50.010;19.972;2023-01-25T13:33:02;8.75;7.75;7.75
35654;PMS1003;21773;50.010;19.972;2023-01-25T13:39:47;10.00;10.00;9.00
35654;PMS1003;21773;50.010;19.972;2023-01-25T13:42:57;8.60;8.60;7.60
35654;PMS1003;21773;50.010;19.972;2023-01-25T13:46:03;10.60;10.60;10.00
35654;PMS1003;21773;50.010;19.972;2023-01-25T13:49:14;9.00;8.00;7.75
35654;PMS1003;21773;50.010;19.972;2023-01-25T13:52:24;9.00;9.00;7.60
35654;PMS1003;21773;50.010;19.972;2023-01-25T13:55:36;9.00;9.00;8.00
35654;PMS1003;21773;50.010;19.972;2023-01-25T13:58:44;11.00;10.00;9.00
35654;PMS1003;21773;50.010;19.972;2023-01-25T14:01:50;12.80;11.80;11.00
35654;PMS1003;21773;50.010;19.972;2023-01-25T14:04:54;10.00;10.00;9.75
35654;PMS1003;21773;50.010;19.972;2023-01-25T14:07:59;11.50;11.00;10.50
35654;PMS1003;21773;50.010;19.972;2023-01-25T14:11:02;10.00;9.20;8.60
35654;PMS1003;21773;50.010;19.972;2023-01-25T14:14:15;8.00;8.00;7.00
35654;PMS1003;21773;50.010;19.972;2023-01-25T14:17:22;9.00;8.00;8.00
35654;PMS1003;21773;50.010;19.972;2023-01-25T14:20:25;8.75;7.75;6.25
35654;PMS1003;21773;50.010;19.972;2023-01-25T14:23:29;10.00;9.00;7.80
35654;PMS1003;21773;50.010;19.972;2023-01-25T14:26:33;9.40;8.40;7.40
35654;PMS1003;21773;50.010;19.972;2023-01-25T14:29:38;8.00;8.00;8.00
35654;PMS1003;21773;50.010;19.972;2023-01-25T14:32:43;11.20;10.80;8.80
35654;PMS1003;21773;50.010;19.972;2023-01-25T14:35:47;15.20;14.20;13.20
35654;PMS1003;21773;50.010;19.972;2023-01-25T14:38:57;13.60;12.00;11.00
35654;PMS1003;21773;50.010;19.972;2023-01-25T14:42:04;13.50;12.50;11.00
35654;PMS1003;21773;50.010;19.972;2023-01-25T14:45:10;14.40;13.00;12.00
35654;PMS1003;21773;50.010;19.972;2023-01-25T14:48:33;15.50;14.50;13.50
35654;PMS1003;21773;50.010;19.972;2023-01-25T14:51:41;13.50;13.00;12.00
35654;PMS1003;21773;50.010;19.972;2023-01-25T14:54:49;12.50;11.50;10.00
35654;PMS1003;21773;50.010;19.972;2023-01-25T14:57:57;13.00;10.60;9.60
35654;PMS1003;21773;50.010;19.972;2023-01-25T15:01:02;9.80;7.20;7.00
35654;PMS1003;21773;50.010;19.972;2023-01-25T15:04:10;12.00;11.00;10.40
35654;PMS1003;21773;50.010;19.972;2023-01-25T15:10:35;12.00;9.60;8.60
35654;PMS1003;21773;50.010;19.972;2023-01-25T15:13:40;9.00;8.60;8.00
35654;PMS1003;21773;50.010;19.972;2023-01-25T15:16:43;9.75;8.75;7.75
35654;PMS1003;21773;50.010;19.972;2023-01-25T15:19:51;11.75;11.75;11.00
35654;PMS1003;21773;50.010;19.972;2023-01-25T15:22:55;11.60;11.00;10.00
35654;PMS1003;21773;50.010;19.972;2023-01-25T15:26:01;10.60;10.00;8.00
35654;PMS1003;21773;50.010;19.972;2023-01-25T15:29:06;11.00;10.00;9.00
35654;PMS1003;21773;50.010;19.972;2023-01-25T15:32:17;10.00;10.00;10.00
35654;PMS1003;21773;50.010;19.972;2023-01-25T15:35:26;9.00;9.00;8.60
35654;PMS1003;21773;50.010;19.972;2023-01-25T15:38:29;10.00;10.00;9.00
35654;PMS1003;21773;50.010;19.972;2023-01-25T15:41:38;14.00;12.80;11.80
35654;PMS1003;21773;50.010;19.972;2023-01-25T15:44:42;15.00;15.00;14.00
35654;PMS1003;21773;50.010;19.972;2023-01-25T15:47:45;13.00;12.00;11.00
35654;PMS1003;21773;50.010;19.972;2023-01-25T15:50:50;14.00;14.00;13.00
35654;PMS1003;21773;50.010;19.972;2023-01-25T15:53:54;10.00;9.00;7.75
35654;PMS1003;21773;50.010;19.972;2023-01-25T15:56:58;12.80;12.00;10.40
35654;PMS1003;21773;50.010;19.972;2023-01-25T16:00:02;12.60;12.00;11.00
35654;PMS1003;21773;50.010;19.972;2023-01-25T16:03:07;9.40;9.00;8.40
35654;PMS1003;21773;50.010;19.972;2023-01-25T16:06:19;10.00;9.40;9.40
35654;PMS1003;21773;50.010;19.972;2023-01-25T16:09:30;12.60;12.60;11.00
35654;PMS1003;21773;50.010;19.972;2023-01-25T16:12:34;11.60;11.00;9.60
35654;PMS1003;21773;50.010;19.972;2023-01-25T16:15:37;14.00;13.00;13.00
35654;PMS1003;21773;50.010;19.972;2023-01-25T16:18:42;13.60;13.00;12.80
35654;PMS1003;21773;50.010;19.972;2023-01-25T16:21:47;12.60;12.00;11.40
35654;PMS1003;21773;50.010;19.972;2023-01-25T16:24:51;16.00;15.00;13.50
35654;PMS1003;21773;50.010;19.972;2023-01-25T16:27:54;16.40;15.60;14.40
35654;PMS1003;21773;50.010;19.972;2023-01-25T16:30:58;15.80;15.80;14.20
35654;PMS1003;21773;50.010;19.972;2023-01-25T16:34:01;16.60;15.00;14.00
35654;PMS1003;21773;50.010;19.972;2023-01-25T16:37:06;16.00;15.00;14.00
35654;PMS1003;21773;50.010;19.972;2023-01-25T16:40:13;16.00;15.00;14.00
35654;PMS1003;21773;50.010;19.972;2023-01-25T16:43:24;13.20;13.20;12.80
35654;PMS1003;21773;50.010;19.972;2023-01-25T16:46:42;16.67;14.00;12.00
35654;PMS1003;21773;50.010;19.972;2023-01-25T16:49:45;21.20;19.60;18.20
35654;PMS1003;21773;50.010;19.972;2023-01-25T16:52:50;18.00;15.00;15.00
35654;PMS1003;21773;50.010;19.972;2023-01-25T16:55:57;19.00;18.00;16.75
35654;PMS1003;21773;50.010;19.972;2023-01-25T16:59:01;16.00;16.00;14.00
35654;PMS1003;21773;50.010;19.972;2023-01-25T17:02:05;19.60;18.80;17.20
35654;PMS1003;21773;50.010;19.972;2023-01-25T17:05:12;19.00;19.00;15.40
35654;PMS1003;21773;50.010;19.972;2023-01-25T17:08:17;21.40;19.00;16.00
35654;PMS1003;21773;50.010;19.972;2023-01-25T17:11:20;20.00;19.00;17.50
35654;PMS1003;21773;50.010;19.972;2023-01-25T17:14:24;18.20;18.00;16.40
35654;PMS1003;21773;50.010;19.972;2023-01-25T17:17:28;25.00;22.00;19.60
35654;PMS1003;21773;50.010;19.972;2023-01-25T17:20:31;19.40;18.00;16.60
35654;PMS1003;21773;50.010;19.972;2023-01-25T17:23:36;21.20;20.80;18.20
35654;PMS1003;21773;50.010;19.972;2023-01-25T17:26:41;21.60;21.00;19.00
35654;PMS1003;21773;50.010;19.972;2023-01-25T17:29:44;25.40;23.00;20.00
35654;PMS1003;21773;50.010;19.972;2023-01-25T17:32:47;24.00;21.40;18.40
35654;PMS1003;21773;50.010;19.972;2023-01-25T17:35:51;20.25;19.00;18.00
35654;PMS1003;21773;50.010;19.972;2023-01-25T17:39:03;25.40;24.40;20.40
35654;PMS1003;21773;50.010;19.972;2023-01-25T17:42:08;22.00;22.00;19.60
35654;PMS1003;21773;50.010;19.972;2023-01-25T17:45:13;26.40;24.00;22.00
35654;PMS1003;21773;50.010;19.972;2023-01-25T17:48:17;27.00;25.00;20.40
35654;PMS1003;21773;50.010;19.972;2023-01-25T17:51:20;25.80;21.20;19.80